Andrews, IN (46702)

2:45 AM EDT on August 26, 2016 (GMT -0400)
Zahn St. | | Change Station

Elev 784 ft 40.88 °N, 85.50 °W | Updated 27 seconds ago

Mostly Cloudy
Mostly Cloudy
71.1 °F
Feels Like 71.1 °F
N
0.0
Wind Variable Wind from SSW
Gusts 0.0 mph

Today
High -- | Low -- °F
--% Chance of Precip.
Yesterday
High -- | Low -- °F
Precip. -- in
Pressure 30.08 in
Visibility 9.0 miles
Clouds Scattered Clouds 3000 ft
Scattered Clouds 9000 ft
Mostly Cloudy 26000 ft
Dew Point 70 °F
Humidity 97%
Rainfall 0.00 in
Snow Depth Not available.
7:03 AM 8:23 PM
Last Quarter, 37% visible
METAR KFWA 260554Z 32003KT 9SM SCT030 SCT090 BKN260 22/21 A3010 RMK AO2 SLP185 T02220206 10267 20222 53009
Pressure 30.08 in
Visibility 9.0 miles
Clouds Scattered Clouds 3000 ft
Scattered Clouds 9000 ft
Mostly Cloudy 26000 ft
Dew Point 70 °F
Humidity 97%
Rainfall 0.00 in
Snow Depth Not available.
7:03 AM 8:23 PM
Last Quarter, 37% visible
METAR KFWA 260554Z 32003KT 9SM SCT030 SCT090 BKN260 22/21 A3010 RMK AO2 SLP185 T02220206 10267 20222 53009

10-Day Weather Forecast

Almanac

Astronomy

Aug. 26, 2016 Rise Set
Actual Time
Civil Twilight
Nautical Twilight
Astronomical Twilight
Moon
Length of Visible Light
Length of Day
Tomorrow will be .
, % of the Moon is Illuminated

Today's Extremes

State Highs State Lows

Community

WunderPhotos

Upload Photos

1,935,063 photos uploaded!

WunderBlog® & News

Nearby

Air Quality

  Air Quality AQ Index Pollutant
Not available.

Snow Depth

Station Depth Elevation

Earthquake Activity

City Distance Mag. Time & Date
Minimum magnitude displayed is 2.5.

Coastal Water Temperatures

Place Temperature

Stations

Nearby Weather Stations

Station Location Temp. Windchill Dew Point Humidity Wind Precip. Elev Updated Type
                   

Watches & Warnings

There are currently no watches in effect.